Weather at Lum Wash Landing Strip [CLOSED]

Public forecast

Using degrees Fahrenheit for public forecast. Weather courtesy of forecast.io.

Closest aviation weather report (METAR) to Lum Wash Landing Strip

Report is more than 6 hours old.

Closest report is Phoenix Goodyear Airport, 6.5 nm (12.1 km) NE. Retrieved 2021/06/15 03:47 UTC (9 hours ago):

KGYR 150347Z 24007KT 10SM FEW150 SCT200 BKN250 38/02 A2971 RMK LAST

Closest aviation forecast (TAF) to Lum Wash Landing Strip

Closest forecast is Luke Air Force Base, 12.2 nm (22.6 km) NNE. Retrieved 2021/06/15 12:00 UTC (23 minutes ago):

TAF TAF KLUF 151200Z 1512/1618 VRB06KT 9999 FEW200 QNH2974INS BECMG 1520/1521 27010G15KT 9999 FEW180 SCT220 QNH2965INS WND VRB06KT AFT 03Z TX48/1523Z TN28/1513Z